Time;durP1;ratioP1;P1;durP2;ratioP2;P2;SDS_P1;SDS_P2;PMS_P1;PMS_P2;Temp;Humidity;BMP_temperature;BMP_pressure;BME280_temperature;BME280_humidity;BME280_pressure;Samples;Min_cycle;Max_cycle;Signal;HPM_P1;HPM_P2
2021/04/25 00:00:23;;;;;;;13.60;10.63;;;;;20.30;101516.00;;;;2079688;28;20233;-66
2021/04/25 00:01:23;;;;;;;12.40;9.90;;;;;20.30;101512.00;;;;2079785;28;20214;-66
2021/04/25 00:02:24;;;;;;;10.40;8.07;;;;;20.30;101509.00;;;;2079201;28;20558;-66
2021/04/25 00:03:24;;;;;;;9.43;7.93;;;;;20.40;101512.00;;;;2079077;28;20256;-65
2021/04/25 00:04:24;;;;;;;8.70;7.43;;;;;20.50;101510.00;;;;2078217;28;20237;-66
2021/04/25 00:05:25;;;;;;;12.17;8.70;;;;;20.50;101510.00;;;;2075871;28;20222;-66
2021/04/25 00:06:26;;;;;;;8.60;7.50;;;;;20.50;101516.00;;;;2079832;28;20210;-66
2021/04/25 00:07:26;;;;;;;8.10;7.30;;;;;20.50;101512.00;;;;2079857;28;20206;-66
2021/04/25 00:08:26;;;;;;;9.00;7.60;;;;;20.50;101511.00;;;;2079284;28;20202;-66
2021/04/25 00:09:27;;;;;;;10.13;8.50;;;;;20.50;101514.00;;;;2079771;28;20205;-66
2021/04/25 00:10:27;;;;;;;9.50;8.10;;;;;20.50;101504.00;;;;2079427;28;20225;-65
2021/04/25 00:11:27;;;;;;;7.87;7.07;;;;;20.50;101508.00;;;;2079643;28;20210;-66
2021/04/25 00:12:28;;;;;;;8.07;7.27;;;;;20.40;101503.00;;;;2078819;28;20229;-66
2021/04/25 00:13:28;;;;;;;9.33;7.50;;;;;20.40;101510.00;;;;2079673;28;20220;-65
2021/04/25 00:14:28;;;;;;;9.23;7.60;;;;;20.50;101508.00;;;;2079360;28;20210;-66
2021/04/25 00:15:29;;;;;;;7.37;6.67;;;;;20.50;101501.00;;;;2075397;28;20210;-66
2021/04/25 00:16:29;;;;;;;9.63;7.63;;;;;20.50;101512.00;;;;2079587;28;20301;-66
2021/04/25 00:17:30;;;;;;;8.17;7.17;;;;;20.50;101509.00;;;;2079110;28;20295;-65
2021/04/25 00:18:30;;;;;;;7.30;6.60;;;;;20.50;101513.00;;;;2079113;28;20268;-66
2021/04/25 00:19:30;;;;;;;8.10;7.07;;;;;20.50;101513.00;;;;2078970;28;20800;-66
2021/04/25 00:20:31;;;;;;;7.80;7.00;;;;;20.50;101508.00;;;;2079481;28;20759;-66
2021/04/25 00:21:31;;;;;;;7.53;6.73;;;;;20.50;101504.00;;;;2078218;28;20268;-65
2021/04/25 00:22:32;;;;;;;6.90;6.20;;;;;20.50;101509.00;;;;2078742;28;20203;-66
2021/04/25 00:23:32;;;;;;;6.97;6.27;;;;;20.50;101507.00;;;;2069596;28;20293;-65
2021/04/25 00:24:32;;;;;;;7.50;6.70;;;;;20.50;101508.00;;;;2078851;28;20202;-66
2021/04/25 00:25:33;;;;;;;7.73;6.93;;;;;20.50;101511.00;;;;2079283;28;20218;-65
2021/04/25 00:26:33;;;;;;;8.40;6.90;;;;;20.50;101512.00;;;;2079603;28;20774;-66
2021/04/25 00:27:34;;;;;;;9.23;7.20;;;;;20.40;101501.00;;;;2079528;28;20218;-66
2021/04/25 00:28:34;;;;;;;7.80;7.00;;;;;20.50;101509.00;;;;2079400;28;20222;-66
2021/04/25 00:29:34;;;;;;;7.17;6.47;;;;;20.40;101512.00;;;;2079431;28;20604;-65
2021/04/25 00:30:34;;;;;;;7.60;6.40;;;;;20.40;101504.00;;;;2079513;28;20237;-66
2021/04/25 00:31:35;;;;;;;9.83;7.70;;;;;20.40;101504.00;;;;2079686;28;20210;-66
2021/04/25 00:32:35;;;;;;;9.43;7.77;;;;;20.30;101502.00;;;;2079543;28;20225;-66
2021/04/25 00:33:36;;;;;;;11.70;6.10;;;;;20.30;101502.00;;;;2079533;28;20271;-66
2021/04/25 00:34:36;;;;;;;8.73;6.80;;;;;20.40;101501.00;;;;2079263;28;20224;-66
2021/04/25 00:35:36;;;;;;;9.40;6.20;;;;;20.40;101495.00;;;;2078745;28;20289;-66
2021/04/25 00:36:37;;;;;;;8.57;6.97;;;;;20.40;101494.00;;;;2078887;28;20228;-66
2021/04/25 00:37:37;;;;;;;6.83;6.20;;;;;20.40;101501.00;;;;2079140;28;20696;-66
2021/04/25 00:38:37;;;;;;;7.80;6.50;;;;;20.40;101499.00;;;;2079514;28;20699;-67
2021/04/25 00:39:38;;;;;;;9.20;6.90;;;;;20.40;101506.00;;;;2079651;28;20270;-67
2021/04/25 00:40:38;;;;;;;6.70;6.10;;;;;20.40;101494.00;;;;2078788;28;20210;-67
2021/04/25 00:41:38;;;;;;;7.30;6.30;;;;;20.40;101498.00;;;;2079638;28;20229;-66
2021/04/25 00:42:39;;;;;;;6.70;5.53;;;;;20.40;101499.00;;;;2079640;28;20301;-66
2021/04/25 00:43:39;;;;;;;7.17;6.40;;;;;20.40;101497.00;;;;2079307;28;20602;-66
2021/04/25 00:44:43;;;;;;;9.33;5.77;;;;;20.40;101495.00;;;;2079420;28;20218;-66
2021/04/25 00:45:44;;;;;;;6.75;5.97;;;;;20.40;101501.00;;;;2078382;28;20261;-67
2021/04/25 00:46:44;;;;;;;6.60;5.77;;;;;20.40;101502.00;;;;2079184;28;20603;-66
2021/04/25 00:47:47;;;;;;;6.83;5.87;;;;;20.40;101501.00;;;;2079675;28;20210;-66
2021/04/25 00:48:47;;;;;;;6.72;5.70;;;;;20.40;101498.00;;;;2079516;28;20214;-66
2021/04/25 00:49:47;;;;;;;7.83;6.20;;;;;20.40;101501.00;;;;2075830;28;20214;-67
2021/04/25 00:50:48;;;;;;;6.20;5.43;;;;;20.40;101502.00;;;;2078567;28;20213;-66
2021/04/25 00:51:48;;;;;;;6.70;6.07;;;;;20.40;101498.00;;;;2079607;28;20275;-66
2021/04/25 00:52:48;;;;;;;6.33;5.13;;;;;20.40;101495.00;;;;2079780;28;20218;-66
2021/04/25 00:53:49;;;;;;;6.87;5.80;;;;;20.40;101498.00;;;;2078537;28;20621;-66
2021/04/25 00:54:49;;;;;;;5.80;5.20;;;;;20.40;101500.00;;;;2078805;28;20238;-67
2021/04/25 00:55:50;;;;;;;5.30;4.80;;;;;20.30;101499.00;;;;2070808;28;20222;-66
2021/04/25 00:56:53;;;;;;;5.97;5.37;;;;;20.30;101499.00;;;;2066861;28;20253;-66
2021/04/25 00:57:54;;;;;;;5.90;5.20;;;;;20.30;101496.00;;;;2079262;28;20636;-66
2021/04/25 00:58:54;;;;;;;5.90;5.25;;;;;20.30;101499.00;;;;2079569;28;20225;-66
2021/04/25 00:59:54;;;;;;;5.53;5.03;;;;;20.30;101490.00;;;;2079551;28;20210;-65
2021/04/25 01:00:55;;;;;;;5.97;5.20;;;;;20.30;101494.00;;;;2079173;28;20309;-66
2021/04/25 01:01:55;;;;;;;5.93;5.33;;;;;20.30;101495.00;;;;2079382;28;20297;-66
2021/04/25 01:02:55;;;;;;;6.97;5.20;;;;;20.30;101496.00;;;;2070571;28;20237;-66
2021/04/25 01:03:56;;;;;;;5.83;5.23;;;;;20.30;101496.00;;;;2070692;28;20234;-66
2021/04/25 01:04:56;;;;;;;5.47;4.87;;;;;20.30;101495.00;;;;2078987;28;20276;-66
2021/04/25 01:05:56;;;;;;;7.00;5.80;;;;;20.30;101505.00;;;;2079259;28;20695;-66
2021/04/25 01:06:57;;;;;;;5.53;5.00;;;;;20.30;101499.00;;;;2079406;28;20756;-66
2021/04/25 01:07:57;;;;;;;5.50;4.90;;;;;20.30;101497.00;;;;2079401;28;20216;-66
2021/04/25 01:08:57;;;;;;;5.83;5.23;;;;;20.30;101492.00;;;;2078809;28;20221;-66
2021/04/25 01:09:58;;;;;;;6.47;4.53;;;;;20.30;101494.00;;;;2078285;28;20580;-66
2021/04/25 01:10:58;;;;;;;5.50;4.63;;;;;20.30;101497.00;;;;2078660;28;20225;-66
2021/04/25 01:11:58;;;;;;;4.83;4.30;;;;;20.30;101498.00;;;;2078504;28;20214;-66
2021/04/25 01:13:00;;;;;;;6.97;5.03;;;;;20.30;101498.00;;;;2078509;28;20313;-66
2021/04/25 01:14:00;;;;;;;6.80;5.30;;;;;20.30;101501.00;;;;2078548;28;20230;-66
2021/04/25 01:15:01;;;;;;;5.43;4.70;;;;;20.30;101501.00;;;;2078301;28;20603;-66
2021/04/25 01:16:01;;;;;;;5.70;5.07;;;;;20.20;101502.00;;;;2079432;28;20205;-66
2021/04/25 01:17:01;;;;;;;7.33;5.40;;;;;20.30;101502.00;;;;2078453;28;20290;-66
2021/04/25 01:18:02;;;;;;;5.60;5.10;;;;;20.20;101506.00;;;;2078570;28;20554;-66
2021/04/25 01:19:02;;;;;;;4.97;4.57;;;;;20.30;101504.00;;;;2079250;28;20203;-66
2021/04/25 01:20:03;;;;;;;5.40;4.60;;;;;20.20;101499.00;;;;2079292;28;20308;-66
2021/04/25 01:21:04;;;;;;;5.73;4.33;;;;;20.20;101496.00;;;;2078827;28;20285;-66
2021/04/25 01:22:05;;;;;;;4.97;4.50;;;;;20.20;101497.00;;;;2077509;28;20206;-66
2021/04/25 01:23:05;;;;;;;5.38;4.85;;;;;20.30;101486.00;;;;2070277;28;20527;-66
2021/04/25 01:24:06;;;;;;;5.07;4.57;;;;;20.20;101494.00;;;;2070364;28;20206;-66
2021/04/25 01:25:07;;;;;;;6.07;4.70;;;;;20.20;101497.00;;;;2079044;28;20631;-66
2021/04/25 01:26:08;;;;;;;5.60;4.88;;;;;20.20;101499.00;;;;2078751;28;20291;-66
2021/04/25 01:27:08;;;;;;;5.30;4.30;;;;;20.20;101491.00;;;;2079080;28;20201;-66
2021/04/25 01:28:08;;;;;;;5.43;4.90;;;;;20.20;101496.00;;;;2079063;28;20588;-66
2021/04/25 01:29:09;;;;;;;5.13;4.63;;;;;20.20;101493.00;;;;2079193;28;20210;-65
2021/04/25 01:30:10;;;;;;;4.63;4.23;;;;;20.20;101488.00;;;;2079090;28;20259;-66
2021/04/25 01:31:10;;;;;;;5.00;4.50;;;;;20.20;101500.00;;;;2078328;28;20229;-66
2021/04/25 01:32:10;;;;;;;5.90;5.40;;;;;20.20;101502.00;;;;2079217;28;20248;-67
2021/04/25 01:33:11;;;;;;;4.83;4.00;;;;;20.20;101501.00;;;;2079145;28;20232;-66
2021/04/25 01:34:11;;;;;;;5.90;4.60;;;;;20.20;101498.00;;;;2076466;28;20309;-66
2021/04/25 01:35:15;;;;;;;6.00;4.80;;;;;20.20;101501.00;;;;2075971;28;20260;-67
2021/04/25 01:36:15;;;;;;;5.90;5.10;;;;;20.20;101496.00;;;;2078350;28;20248;-66
2021/04/25 01:37:16;;;;;;;5.17;4.63;;;;;20.20;101504.00;;;;2077298;28;20416;-66
2021/04/25 01:38:16;;;;;;;5.07;4.57;;;;;20.20;101504.00;;;;2079368;28;20222;-66
2021/04/25 01:39:16;;;;;;;5.60;4.73;;;;;20.20;101507.00;;;;2079322;28;20218;-66
2021/04/25 01:40:17;;;;;;;5.50;4.53;;;;;20.20;101499.00;;;;2076248;28;20218;-66
2021/04/25 01:41:17;;;;;;;4.70;4.30;;;;;20.20;101507.00;;;;2078419;28;20708;-66
2021/04/25 01:42:18;;;;;;;5.63;4.53;;;;;20.20;101506.00;;;;2079162;28;20275;-66
2021/04/25 01:43:18;;;;;;;5.13;4.63;;;;;20.20;101503.00;;;;2079260;28;20304;-67
2021/04/25 01:44:19;;;;;;;4.80;4.33;;;;;20.20;101503.00;;;;2079069;28;20220;-66
2021/04/25 01:45:19;;;;;;;5.03;4.53;;;;;20.20;101506.00;;;;2077740;28;20833;-66
2021/04/25 01:46:19;;;;;;;4.93;4.17;;;;;20.20;101506.00;;;;2078565;28;20672;-66
2021/04/25 01:47:20;;;;;;;4.97;4.03;;;;;20.20;101509.00;;;;2079260;28;20229;-66
2021/04/25 01:48:20;;;;;;;4.73;4.17;;;;;20.10;101508.00;;;;2079097;28;20606;-66
2021/04/25 01:49:21;;;;;;;4.60;4.00;;;;;20.20;101507.00;;;;2079178;28;20927;-66
2021/04/25 01:50:22;;;;;;;4.37;3.90;;;;;20.20;101510.00;;;;2079249;28;20221;-66
2021/04/25 01:51:22;;;;;;;4.45;3.70;;;;;20.20;101508.00;;;;2077832;28;20210;-66
2021/04/25 01:52:23;;;;;;;4.83;4.33;;;;;20.20;101505.00;;;;2079152;28;20247;-66
2021/04/25 01:53:23;;;;;;;4.47;4.07;;;;;20.20;101507.00;;;;2079049;28;20214;-67
2021/04/25 01:54:23;;;;;;;3.90;3.47;;;;;20.10;101498.00;;;;2074964;28;20222;-66
2021/04/25 01:55:25;;;;;;;4.20;3.80;;;;;20.10;101506.00;;;;2078311;28;20214;-66
2021/04/25 01:56:25;;;;;;;4.20;3.80;;;;;20.10;101505.00;;;;2075558;28;20610;-66
2021/04/25 01:57:26;;;;;;;4.03;3.63;;;;;20.10;101511.00;;;;2079283;28;20240;-66
2021/04/25 01:58:26;;;;;;;5.80;4.40;;;;;20.10;101508.00;;;;2079310;28;20696;-67
2021/04/25 01:59:26;;;;;;;4.50;3.90;;;;;20.10;101509.00;;;;2079174;28;20580;-66
2021/04/25 02:00:30;;;;;;;4.23;3.83;;;;;20.10;101510.00;;;;2078972;28;20210;-67
2021/04/25 02:01:31;;;;;;;4.45;4.05;;;;;20.10;101510.00;;;;2079207;28;20622;-66
2021/04/25 02:02:31;;;;;;;5.30;4.77;;;;;20.10;101509.00;;;;2078602;28;20214;-66
2021/04/25 02:03:32;;;;;;;3.70;3.30;;;;;20.10;101512.00;;;;2070352;28;20214;-66
2021/04/25 02:04:32;;;;;;;4.70;4.30;;;;;20.10;101505.00;;;;2070321;28;20214;-67
2021/04/25 02:05:32;;;;;;;5.43;4.60;;;;;20.10;101502.00;;;;2079077;28;20226;-66
2021/04/25 02:06:34;;;;;;;4.40;4.00;;;;;20.10;101500.00;;;;2078448;28;20236;-66
2021/04/25 02:07:34;;;;;;;4.72;4.22;;;;;20.10;101509.00;;;;2062490;28;20234;-66
2021/04/25 02:08:35;;;;;;;5.10;4.60;;;;;20.10;101503.00;;;;2070486;28;20253;-66
2021/04/25 02:09:35;;;;;;;4.57;3.67;;;;;20.10;101500.00;;;;2079244;28;20221;-67
2021/04/25 02:10:36;;;;;;;3.80;3.47;;;;;20.10;101504.00;;;;2078983;28;20308;-67
2021/04/25 02:11:36;;;;;;;4.60;4.20;;;;;20.10;101505.00;;;;2078210;28;20792;-67
2021/04/25 02:12:37;;;;;;;5.43;4.23;;;;;20.10;101498.00;;;;2070478;28;20689;-67
2021/04/25 02:13:37;;;;;;;6.00;4.30;;;;;20.10;101503.00;;;;2078631;28;20875;-66
2021/04/25 02:14:38;;;;;;;4.10;3.70;;;;;20.10;101504.00;;;;2078685;28;20333;-66
2021/04/25 02:15:39;;;;;;;4.20;3.80;;;;;20.10;101494.00;;;;2079527;28;20256;-66
2021/04/25 02:16:39;;;;;;;4.38;3.97;;;;;20.10;101502.00;;;;2079673;28;20206;-66
2021/04/25 02:17:43;;;;;;;4.50;3.80;;;;;20.10;101494.00;;;;2079347;28;20271;-66
2021/04/25 02:18:43;;;;;;;4.63;4.22;;;;;20.10;101495.00;;;;2079428;28;20202;-66
2021/04/25 02:19:43;;;;;;;4.27;3.87;;;;;20.10;101494.00;;;;2079232;28;20673;-66
2021/04/25 02:20:44;;;;;;;4.10;3.70;;;;;20.10;101491.00;;;;2078284;28;20238;-67
2021/04/25 02:21:44;;;;;;;4.10;3.70;;;;;20.10;101494.00;;;;2078540;28;20693;-66
2021/04/25 02:22:45;;;;;;;4.20;3.80;;;;;20.10;101495.00;;;;2078681;28;20210;-66
2021/04/25 02:23:45;;;;;;;4.53;3.83;;;;;20.10;101491.00;;;;2078710;28;20218;-66
2021/04/25 02:24:46;;;;;;;4.30;3.90;;;;;20.10;101499.00;;;;2068792;28;20218;-66
2021/04/25 02:25:46;;;;;;;4.30;3.90;;;;;20.10;101496.00;;;;2078253;28;20269;-66
2021/04/25 02:26:46;;;;;;;3.93;3.53;;;;;20.10;101502.00;;;;2078787;28;20249;-67
2021/04/25 02:27:47;;;;;;;4.17;3.70;;;;;20.00;101494.00;;;;2078717;28;20222;-66
2021/04/25 02:28:47;;;;;;;3.90;3.50;;;;;20.00;101501.00;;;;2079344;28;20217;-66
2021/04/25 02:29:47;;;;;;;4.90;3.80;;;;;20.00;101503.00;;;;2079209;28;20626;-66
2021/04/25 02:30:48;;;;;;;3.63;3.33;;;;;20.00;101502.00;;;;2078901;28;20214;-66
2021/04/25 02:31:48;;;;;;;4.10;3.70;;;;;20.00;101503.00;;;;2079219;28;20265;-66
2021/04/25 02:32:49;;;;;;;5.50;4.63;;;;;20.00;101501.00;;;;2078987;28;20218;-66
2021/04/25 02:33:49;;;;;;;4.23;3.43;;;;;20.00;101504.00;;;;2079148;28;20268;-66
2021/04/25 02:34:49;;;;;;;4.80;3.90;;;;;20.00;101501.00;;;;2074362;28;20224;-66
2021/04/25 02:35:50;;;;;;;4.20;3.80;;;;;20.00;101503.00;;;;2078408;28;20210;-66
2021/04/25 02:36:50;;;;;;;4.70;4.00;;;;;20.00;101505.00;;;;2078614;28;20280;-66
2021/04/25 02:37:51;;;;;;;4.20;3.53;;;;;20.00;101500.00;;;;2078977;28;20214;-67
2021/04/25 02:38:51;;;;;;;3.83;3.40;;;;;20.00;101507.00;;;;2079547;28;20276;-66
2021/04/25 02:39:51;;;;;;;3.93;3.57;;;;;20.00;101510.00;;;;2079555;28;20696;-66
2021/04/25 02:40:52;;;;;;;4.37;3.73;;;;;20.00;101510.00;;;;2079716;28;20218;-66
2021/04/25 02:41:53;;;;;;;4.47;3.77;;;;;20.00;101504.00;;;;2080118;28;20210;-66
2021/04/25 02:42:54;;;;;;;4.10;3.70;;;;;20.00;101494.00;;;;2080312;28;20218;-67
2021/04/25 02:43:54;;;;;;;4.90;3.50;;;;;20.00;101516.00;;;;2080451;28;20244;-66
2021/04/25 02:44:54;;;;;;;4.20;3.47;;;;;20.00;101508.00;;;;2080326;28;20249;-66
2021/04/25 02:45:55;;;;;;;4.47;3.70;;;;;20.00;101503.00;;;;2079747;28;20228;-67
2021/04/25 02:46:55;;;;;;;4.17;3.77;;;;;20.00;101505.00;;;;2079683;28;20281;-66
2021/04/25 02:48:00;;;;;;;4.20;3.80;;;;;20.00;101506.00;;;;2080535;28;20209;-66
2021/04/25 02:49:00;;;;;;;4.82;3.80;;;;;20.00;101509.00;;;;2080364;28;20245;-66
2021/04/25 02:50:01;;;;;;;4.07;3.70;;;;;20.00;101514.00;;;;2080511;28;20284;-66
2021/04/25 02:51:01;;;;;;;4.43;4.03;;;;;20.00;101499.00;;;;2076630;28;20218;-66
2021/04/25 02:52:01;;;;;;;5.03;3.90;;;;;20.00;101497.00;;;;2080382;28;20221;-67
2021/04/25 02:53:02;;;;;;;3.90;3.47;;;;;20.00;101505.00;;;;2080553;28;20804;-66
2021/04/25 02:54:03;;;;;;;4.40;4.00;;;;;20.00;101500.00;;;;2080350;28;20218;-67
2021/04/25 02:55:04;;;;;;;4.00;3.60;;;;;20.00;101486.00;;;;2080498;28;21109;-67
2021/04/25 02:56:04;;;;;;;3.72;3.33;;;;;20.00;101489.00;;;;2080072;28;20228;-66
2021/04/25 02:57:05;;;;;;;3.93;3.23;;;;;20.00;101496.00;;;;2080351;28;20220;-67
2021/04/25 02:58:06;;;;;;;3.90;3.33;;;;;19.90;101489.00;;;;2080339;28;20317;-66
2021/04/25 02:59:06;;;;;;;4.00;3.70;;;;;20.00;101494.00;;;;2080292;28;20221;-67
2021/04/25 03:00:08;;;;;;;4.93;4.00;;;;;20.00;101497.00;;;;2077847;28;20978;-66
2021/04/25 03:01:09;;;;;;;4.13;3.60;;;;;20.00;101501.00;;;;2079659;28;20222;-66
2021/04/25 03:02:09;;;;;;;3.70;3.40;;;;;20.00;101496.00;;;;2079784;28;20217;-66
2021/04/25 03:03:09;;;;;;;3.80;3.40;;;;;19.90;101491.00;;;;2071414;28;20222;-66
2021/04/25 03:04:10;;;;;;;4.40;4.00;;;;;19.90;101495.00;;;;2068554;28;20215;-66
2021/04/25 03:05:11;;;;;;;4.93;4.20;;;;;20.00;101495.00;;;;2080109;28;20584;-66
2021/04/25 03:06:11;;;;;;;4.00;3.60;;;;;20.00;101498.00;;;;2079905;28;20630;-66
2021/04/25 03:07:11;;;;;;;4.80;4.30;;;;;19.90;101493.00;;;;2080161;28;20468;-66
2021/04/25 03:08:12;;;;;;;3.70;3.40;;;;;19.90;101501.00;;;;2079526;28;20328;-66
2021/04/25 03:09:12;;;;;;;4.67;4.27;;;;;19.90;101494.00;;;;2079567;28;20668;-66
2021/04/25 03:10:13;;;;;;;4.77;4.00;;;;;19.90;101503.00;;;;2079545;28;20210;-67
2021/04/25 03:11:14;;;;;;;4.60;3.88;;;;;19.90;101495.00;;;;2079448;28;20206;-66
2021/04/25 03:12:14;;;;;;;4.30;3.90;;;;;20.00;101497.00;;;;2079639;28;20310;-66
2021/04/25 03:13:14;;;;;;;3.60;3.10;;;;;19.90;101498.00;;;;2080272;28;20221;-66
2021/04/25 03:14:15;;;;;;;3.53;3.23;;;;;20.00;101498.00;;;;2080294;28;20214;-66
2021/04/25 03:15:16;;;;;;;4.30;3.90;;;;;19.90;101499.00;;;;2077063;28;20210;-66
2021/04/25 03:16:16;;;;;;;5.40;4.10;;;;;19.90;101495.00;;;;2080256;28;20305;-66
2021/04/25 03:17:16;;;;;;;3.80;3.40;;;;;19.90;101493.00;;;;2080346;28;20256;-66
2021/04/25 03:18:17;;;;;;;3.90;3.60;;;;;19.90;101492.00;;;;2079492;28;20221;-66
2021/04/25 03:19:17;;;;;;;3.37;3.07;;;;;19.90;101493.00;;;;2079196;28;20229;-66
2021/04/25 03:20:19;;;;;;;3.83;3.50;;;;;19.90;101491.00;;;;2077892;28;20214;-66
2021/04/25 03:21:19;;;;;;;4.60;3.80;;;;;19.90;101490.00;;;;2079857;28;20592;-66
2021/04/25 03:22:20;;;;;;;4.30;3.90;;;;;19.90;101487.00;;;;2080234;28;20222;-66
2021/04/25 03:23:20;;;;;;;4.00;3.60;;;;;19.90;101486.00;;;;2079804;28;20210;-66
2021/04/25 03:24:20;;;;;;;3.73;3.43;;;;;19.90;101489.00;;;;2080227;28;20297;-66
2021/04/25 03:25:20;;;;;;;4.17;3.33;;;;;19.90;101491.00;;;;2080108;28;20814;-67
2021/04/25 03:26:21;;;;;;;4.30;3.90;;;;;19.90;101493.00;;;;2080221;28;20217;-66
2021/04/25 03:27:21;;;;;;;4.00;3.60;;;;;19.90;101486.00;;;;2080438;28;20206;-66
2021/04/25 03:28:22;;;;;;;5.30;4.00;;;;;19.90;101493.00;;;;2071114;28;20257;-66
2021/04/25 03:29:22;;;;;;;3.77;3.47;;;;;19.90;101493.00;;;;2071311;28;20260;-67
2021/04/25 03:30:22;;;;;;;3.70;3.37;;;;;19.90;101491.00;;;;2079426;28;20237;-67
2021/04/25 03:31:23;;;;;;;4.40;4.00;;;;;19.90;101495.00;;;;2079157;28;20218;-66
2021/04/25 03:32:23;;;;;;;4.20;3.80;;;;;19.90;101496.00;;;;2080005;28;20249;-66
2021/04/25 03:33:23;;;;;;;4.57;3.80;;;;;19.90;101496.00;;;;2080197;28;20221;-66
2021/04/25 03:34:24;;;;;;;4.00;3.60;;;;;19.90;101495.00;;;;2079974;28;20600;-67
2021/04/25 03:35:24;;;;;;;4.00;3.40;;;;;19.90;101493.00;;;;2080406;28;20761;-66
2021/04/25 03:36:24;;;;;;;3.97;3.57;;;;;19.90;101491.00;;;;2079900;28;20719;-66
2021/04/25 03:37:24;;;;;;;3.50;3.20;;;;;19.90;101482.00;;;;2079966;28;20213;-66
2021/04/25 03:38:25;;;;;;;3.70;3.20;;;;;19.90;101484.00;;;;2080106;28;20210;-66
2021/04/25 03:39:26;;;;;;;3.53;3.23;;;;;19.90;101494.00;;;;2080155;28;20237;-66
2021/04/25 03:40:26;;;;;;;5.13;3.67;;;;;19.90;101488.00;;;;2079387;28;20480;-66
2021/04/25 03:41:26;;;;;;;4.40;4.00;;;;;19.90;101494.00;;;;2079314;28;20207;-66
2021/04/25 03:42:27;;;;;;;3.77;3.40;;;;;19.90;101491.00;;;;2076228;28;20206;-67
2021/04/25 03:43:27;;;;;;;4.10;3.70;;;;;19.80;101486.00;;;;2080108;28;20703;-66
2021/04/25 03:44:27;;;;;;;4.33;3.73;;;;;19.80;101475.00;;;;2080131;28;20707;-66
2021/04/25 03:45:28;;;;;;;3.77;3.10;;;;;19.90;101487.00;;;;2080041;28;20684;-65
2021/04/25 03:46:28;;;;;;;3.70;3.40;;;;;19.90;101486.00;;;;2080007;28;20606;-66
2021/04/25 03:47:28;;;;;;;4.53;3.67;;;;;19.90;101489.00;;;;2077726;28;20235;-66
2021/04/25 03:48:29;;;;;;;4.00;3.33;;;;;19.90;101482.00;;;;2080165;28;20206;-66
2021/04/25 03:49:29;;;;;;;3.70;3.30;;;;;19.90;101476.00;;;;2078691;28;20236;-67
2021/04/25 03:50:29;;;;;;;3.63;3.33;;;;;19.90;101477.00;;;;2079845;28;20217;-66
2021/04/25 03:51:30;;;;;;;4.37;3.80;;;;;19.80;101492.00;;;;2072075;28;20402;-66
2021/04/25 03:52:30;;;;;;;3.93;3.53;;;;;19.90;101493.00;;;;2079535;28;20217;-66
2021/04/25 03:53:31;;;;;;;5.23;3.57;;;;;19.80;101489.00;;;;2079801;28;20239;-66
2021/04/25 03:54:32;;;;;;;4.87;3.57;;;;;19.80;101493.00;;;;2080041;28;20233;-66
2021/04/25 03:55:32;;;;;;;3.40;3.10;;;;;19.80;101494.00;;;;2080059;28;20206;-66
2021/04/25 03:56:32;;;;;;;4.43;3.77;;;;;19.80;101490.00;;;;2080301;28;20731;-66
2021/04/25 03:57:33;;;;;;;4.07;3.57;;;;;19.80;101493.00;;;;2080032;28;20202;-66
2021/04/25 03:58:33;;;;;;;3.70;3.30;;;;;19.80;101495.00;;;;2080150;28;20206;-66
2021/04/25 03:59:33;;;;;;;4.07;3.50;;;;;19.80;101499.00;;;;2080132;28;20202;-66
2021/04/25 04:00:34;;;;;;;4.43;3.30;;;;;19.80;101487.00;;;;2079903;28;20297;-66
2021/04/25 04:01:34;;;;;;;3.90;3.50;;;;;19.80;101494.00;;;;2079912;28;20268;-66
2021/04/25 04:02:35;;;;;;;4.00;3.30;;;;;19.80;101492.00;;;;2080138;28;20268;-66
2021/04/25 04:03:35;;;;;;;3.90;3.03;;;;;19.80;101489.00;;;;2080176;28;20206;-66
2021/04/25 04:04:35;;;;;;;3.70;3.40;;;;;19.80;101490.00;;;;2079744;28;20216;-66
2021/04/25 04:05:36;;;;;;;4.17;3.70;;;;;19.80;101486.00;;;;2079819;28;20221;-66
2021/04/25 04:06:36;;;;;;;4.43;3.70;;;;;19.80;101484.00;;;;2079620;28;20217;-66
2021/04/25 04:07:36;;;;;;;3.73;3.30;;;;;19.80;101496.00;;;;2076747;28;20221;-65
2021/04/25 04:08:37;;;;;;;4.17;3.73;;;;;19.80;101491.00;;;;2079850;28;20217;-64
2021/04/25 04:09:39;;;;;;;3.90;3.60;;;;;19.80;101495.00;;;;2079772;28;20264;-66
2021/04/25 04:10:39;;;;;;;4.15;3.75;;;;;19.80;101498.00;;;;2079668;28;20213;-66
2021/04/25 04:11:39;;;;;;;3.97;3.63;;;;;19.80;101498.00;;;;2077608;28;20321;-66
2021/04/25 04:12:40;;;;;;;4.30;3.70;;;;;19.80;101493.00;;;;2076046;28;20684;-66
2021/04/25 04:13:40;;;;;;;4.37;3.97;;;;;19.80;101500.00;;;;2075511;28;20771;-66
2021/04/25 04:14:41;;;;;;;4.03;3.63;;;;;19.80;101502.00;;;;2079738;28;20249;-66
2021/04/25 04:15:42;;;;;;;4.03;3.63;;;;;19.80;101495.00;;;;2079382;28;20237;-66
2021/04/25 04:16:42;;;;;;;4.73;3.70;;;;;19.80;101496.00;;;;2079658;28;20221;-66
2021/04/25 04:17:43;;;;;;;4.83;3.60;;;;;19.80;101496.00;;;;2079632;28;20301;-66
2021/04/25 04:18:43;;;;;;;4.10;3.60;;;;;19.80;101499.00;;;;2079844;28;20683;-66
2021/04/25 04:19:43;;;;;;;4.27;3.67;;;;;19.80;101498.00;;;;2079840;28;20753;-66
2021/04/25 04:20:44;;;;;;;3.07;2.87;;;;;19.80;101495.00;;;;2078945;28;20279;-66
2021/04/25 04:21:45;;;;;;;4.20;3.80;;;;;19.80;101494.00;;;;2079531;28;20263;-66
2021/04/25 04:22:45;;;;;;;3.80;3.50;;;;;19.80;101500.00;;;;2077138;28;20681;-66
2021/04/25 04:23:45;;;;;;;3.87;3.07;;;;;19.80;101498.00;;;;2079649;28;20210;-66
2021/04/25 04:24:46;;;;;;;4.03;3.63;;;;;19.80;101496.00;;;;2079093;28;20214;-66
2021/04/25 04:25:46;;;;;;;4.67;3.97;;;;;19.80;101492.00;;;;2079176;28;20217;-66
2021/04/25 04:26:46;;;;;;;3.93;3.53;;;;;19.80;101499.00;;;;2087283;28;20232;-66
2021/04/25 04:27:46;;;;;;;4.00;3.70;;;;;19.80;101496.00;;;;2079714;28;20301;-66
2021/04/25 04:28:47;;;;;;;4.83;3.87;;;;;19.80;101494.00;;;;2079837;28;20688;-66
2021/04/25 04:29:47;;;;;;;4.20;3.80;;;;;19.80;101494.00;;;;2079710;28;20668;-67
2021/04/25 04:30:48;;;;;;;3.93;3.57;;;;;19.80;101491.00;;;;2079680;28;20284;-66
2021/04/25 04:31:48;;;;;;;4.40;3.73;;;;;19.80;101491.00;;;;2078326;28;20233;-66
2021/04/25 04:32:49;;;;;;;3.83;3.53;;;;;19.80;101492.00;;;;2070755;28;20763;-66
2021/04/25 04:33:49;;;;;;;3.47;3.17;;;;;19.70;101494.00;;;;2078666;28;20214;-66
2021/04/25 04:34:49;;;;;;;4.13;3.73;;;;;19.80;101494.00;;;;2079617;28;20218;-66
2021/04/25 04:35:50;;;;;;;4.33;3.70;;;;;19.70;101500.00;;;;2079547;28;20222;-66
2021/04/25 04:36:50;;;;;;;4.57;4.00;;;;;19.80;101496.00;;;;2079792;28;20731;-66
2021/04/25 04:37:50;;;;;;;4.33;3.90;;;;;19.80;101504.00;;;;2076552;28;20633;-66
2021/04/25 04:38:51;;;;;;;4.97;4.20;;;;;19.70;101503.00;;;;2079569;28;21050;-66
2021/04/25 04:39:51;;;;;;;4.40;3.97;;;;;19.70;101503.00;;;;2079843;28;20703;-66
2021/04/25 04:40:51;;;;;;;5.53;3.80;;;;;19.70;101494.00;;;;2079688;28;20229;-66
2021/04/25 04:41:52;;;;;;;6.53;4.30;;;;;19.70;101497.00;;;;2079534;28;20257;-66
2021/04/25 04:42:52;;;;;;;3.47;3.17;;;;;19.70;101502.00;;;;2079009;28;20217;-66
2021/04/25 04:43:54;;;;;;;4.37;4.00;;;;;19.70;101497.00;;;;2075172;28;20225;-66
2021/04/25 04:44:54;;;;;;;3.92;3.50;;;;;19.70;101500.00;;;;2078448;28;20354;-66
2021/04/25 04:45:54;;;;;;;4.23;3.43;;;;;19.80;101494.00;;;;2078432;28;20723;-66
2021/04/25 04:46:55;;;;;;;3.83;3.40;;;;;19.70;101501.00;;;;2079453;28;20218;-66
2021/04/25 04:47:55;;;;;;;4.10;3.27;;;;;19.70;101493.00;;;;2077207;28;20210;-66
2021/04/25 04:48:55;;;;;;;3.83;3.53;;;;;19.70;101499.00;;;;2079470;28;20233;-66
2021/04/25 04:49:56;;;;;;;3.50;3.20;;;;;19.70;101506.00;;;;2078697;28;20217;-66
2021/04/25 04:50:56;;;;;;;3.50;3.20;;;;;19.70;101498.00;;;;2078847;28;20275;-66
2021/04/25 04:51:56;;;;;;;3.90;3.47;;;;;19.70;101505.00;;;;2078820;28;20206;-66
2021/04/25 04:52:57;;;;;;;4.63;3.47;;;;;19.70;101504.00;;;;2076879;28;20213;-66
2021/04/25 04:53:57;;;;;;;3.93;3.57;;;;;19.70;101501.00;;;;2079722;28;20217;-66
2021/04/25 04:54:57;;;;;;;3.60;3.30;;;;;19.70;101504.00;;;;2079461;28;20221;-66
2021/04/25 04:55:58;;;;;;;4.10;3.70;;;;;19.70;101500.00;;;;2079482;28;20734;-66
2021/04/25 04:56:58;;;;;;;3.70;3.27;;;;;19.70;101504.00;;;;2079374;28;20312;-66
2021/04/25 04:57:58;;;;;;;4.03;3.73;;;;;19.70;101505.00;;;;2066379;28;20439;-66
2021/04/25 04:58:59;;;;;;;4.23;3.60;;;;;19.70;101504.00;;;;2078905;28;20210;-66